sensor_id;sensor_type;location;lat;lon;timestamp;temperature;humidity
7942;HTU21D;4016;50.758;7.150;2023-11-21T00:01:02;9.05;118.99
7942;HTU21D;4016;50.758;7.150;2023-11-21T00:06:04;9.10;118.99
7942;HTU21D;4016;50.758;7.150;2023-11-21T00:11:08;9.11;118.99
7942;HTU21D;4016;50.758;7.150;2023-11-21T00:16:09;9.14;118.99
7942;HTU21D;4016;50.758;7.150;2023-11-21T00:21:09;9.09;118.99
7942;HTU21D;4016;50.758;7.150;2023-11-21T00:26:12;9.20;118.99
7942;HTU21D;4016;50.758;7.150;2023-11-21T00:31:14;9.33;118.99
7942;HTU21D;4016;50.758;7.150;2023-11-21T00:36:14;9.29;118.99
7942;HTU21D;4016;50.758;7.150;2023-11-21T00:41:15;9.19;118.99
7942;HTU21D;4016;50.758;7.150;2023-11-21T00:46:15;9.12;118.99
7942;HTU21D;4016;50.758;7.150;2023-11-21T00:51:15;9.06;118.99
7942;HTU21D;4016;50.758;7.150;2023-11-21T00:56:16;9.01;118.99
7942;HTU21D;4016;50.758;7.150;2023-11-21T01:01:16;9.02;118.99
7942;HTU21D;4016;50.758;7.150;2023-11-21T01:06:17;9.06;118.99
7942;HTU21D;4016;50.758;7.150;2023-11-21T01:11:17;9.00;118.99
7942;HTU21D;4016;50.758;7.150;2023-11-21T01:16:18;9.05;118.99
7942;HTU21D;4016;50.758;7.150;2023-11-21T01:21:18;9.01;118.99
7942;HTU21D;4016;50.758;7.150;2023-11-21T01:26:18;9.04;118.99
7942;HTU21D;4016;50.758;7.150;2023-11-21T01:31:19;9.14;118.99
7942;HTU21D;4016;50.758;7.150;2023-11-21T01:36:20;9.03;118.99
7942;HTU21D;4016;50.758;7.150;2023-11-21T01:41:21;9.18;118.99
7942;HTU21D;4016;50.758;7.150;2023-11-21T01:46:22;9.03;118.99
7942;HTU21D;4016;50.758;7.150;2023-11-21T01:51:23;9.05;118.99
7942;HTU21D;4016;50.758;7.150;2023-11-21T01:56:23;9.04;118.99
7942;HTU21D;4016;50.758;7.150;2023-11-21T02:01:24;8.96;118.99
7942;HTU21D;4016;50.758;7.150;2023-11-21T02:06:26;8.96;118.99
7942;HTU21D;4016;50.758;7.150;2023-11-21T02:11:26;8.90;118.99
7942;HTU21D;4016;50.758;7.150;2023-11-21T02:16:27;8.90;118.99
7942;HTU21D;4016;50.758;7.150;2023-11-21T02:21:31;8.88;118.99
7942;HTU21D;4016;50.758;7.150;2023-11-21T02:26:31;8.92;118.99
7942;HTU21D;4016;50.758;7.150;2023-11-21T02:31:32;9.00;118.99
7942;HTU21D;4016;50.758;7.150;2023-11-21T02:36:33;8.96;118.99
7942;HTU21D;4016;50.758;7.150;2023-11-21T02:41:33;8.97;118.99
7942;HTU21D;4016;50.758;7.150;2023-11-21T02:46:35;8.93;118.99
7942;HTU21D;4016;50.758;7.150;2023-11-21T02:51:36;8.91;118.99
7942;HTU21D;4016;50.758;7.150;2023-11-21T02:56:38;8.93;118.99
7942;HTU21D;4016;50.758;7.150;2023-11-21T03:01:40;8.88;118.99
7942;HTU21D;4016;50.758;7.150;2023-11-21T03:06:40;8.89;118.99
7942;HTU21D;4016;50.758;7.150;2023-11-21T03:11:40;8.92;118.99
7942;HTU21D;4016;50.758;7.150;2023-11-21T03:16:41;8.77;118.99
7942;HTU21D;4016;50.758;7.150;2023-11-21T03:21:41;8.67;118.99
7942;HTU21D;4016;50.758;7.150;2023-11-21T03:26:41;8.60;118.99
7942;HTU21D;4016;50.758;7.150;2023-11-21T03:31:42;8.55;118.99
7942;HTU21D;4016;50.758;7.150;2023-11-21T03:36:43;8.51;118.99
7942;HTU21D;4016;50.758;7.150;2023-11-21T03:41:43;8.49;118.99
7942;HTU21D;4016;50.758;7.150;2023-11-21T03:46:44;8.52;118.99
7942;HTU21D;4016;50.758;7.150;2023-11-21T03:51:44;8.62;118.99
7942;HTU21D;4016;50.758;7.150;2023-11-21T03:56:44;8.66;118.99
7942;HTU21D;4016;50.758;7.150;2023-11-21T04:01:45;8.63;118.99
7942;HTU21D;4016;50.758;7.150;2023-11-21T04:06:45;8.62;118.99
7942;HTU21D;4016;50.758;7.150;2023-11-21T04:11:46;8.60;118.99
7942;HTU21D;4016;50.758;7.150;2023-11-21T04:16:46;8.49;118.99
7942;HTU21D;4016;50.758;7.150;2023-11-21T04:21:46;8.48;118.99
7942;HTU21D;4016;50.758;7.150;2023-11-21T04:26:47;8.48;118.99
7942;HTU21D;4016;50.758;7.150;2023-11-21T04:31:47;8.56;118.99
7942;HTU21D;4016;50.758;7.150;2023-11-21T04:36:49;8.55;118.99
7942;HTU21D;4016;50.758;7.150;2023-11-21T04:41:50;8.51;118.99
7942;HTU21D;4016;50.758;7.150;2023-11-21T04:46:50;8.48;118.99
7942;HTU21D;4016;50.758;7.150;2023-11-21T04:51:51;8.50;118.99
7942;HTU21D;4016;50.758;7.150;2023-11-21T04:56:51;8.50;118.99
7942;HTU21D;4016;50.758;7.150;2023-11-21T05:01:52;8.47;118.99
7942;HTU21D;4016;50.758;7.150;2023-11-21T05:06:52;8.49;118.99
7942;HTU21D;4016;50.758;7.150;2023-11-21T05:11:52;8.49;118.99
7942;HTU21D;4016;50.758;7.150;2023-11-21T05:16:54;8.50;118.99
7942;HTU21D;4016;50.758;7.150;2023-11-21T05:21:55;8.50;118.99
7942;HTU21D;4016;50.758;7.150;2023-11-21T05:26:55;8.50;118.99
7942;HTU21D;4016;50.758;7.150;2023-11-21T05:31:56;8.48;118.99
7942;HTU21D;4016;50.758;7.150;2023-11-21T05:36:56;8.49;118.99
7942;HTU21D;4016;50.758;7.150;2023-11-21T05:41:58;8.47;118.99
7942;HTU21D;4016;50.758;7.150;2023-11-21T05:47:00;8.52;118.99
7942;HTU21D;4016;50.758;7.150;2023-11-21T05:52:00;8.41;118.99
7942;HTU21D;4016;50.758;7.150;2023-11-21T05:57:00;8.38;118.99
7942;HTU21D;4016;50.758;7.150;2023-11-21T06:02:01;8.35;118.99
7942;HTU21D;4016;50.758;7.150;2023-11-21T06:07:02;8.32;118.99
7942;HTU21D;4016;50.758;7.150;2023-11-21T06:12:03;8.30;118.99
7942;HTU21D;4016;50.758;7.150;2023-11-21T06:17:04;8.32;118.99
7942;HTU21D;4016;50.758;7.150;2023-11-21T06:22:04;8.32;118.99
7942;HTU21D;4016;50.758;7.150;2023-11-21T06:27:05;8.35;118.99
7942;HTU21D;4016;50.758;7.150;2023-11-21T06:32:05;8.36;118.99
7942;HTU21D;4016;50.758;7.150;2023-11-21T06:37:06;8.38;118.99
7942;HTU21D;4016;50.758;7.150;2023-11-21T06:42:06;8.39;118.99
7942;HTU21D;4016;50.758;7.150;2023-11-21T06:47:07;8.38;118.99
7942;HTU21D;4016;50.758;7.150;2023-11-21T06:52:07;8.38;118.99
7942;HTU21D;4016;50.758;7.150;2023-11-21T06:57:08;8.44;118.99
7942;HTU21D;4016;50.758;7.150;2023-11-21T07:02:09;8.44;118.99
7942;HTU21D;4016;50.758;7.150;2023-11-21T07:07:09;8.50;118.99
7942;HTU21D;4016;50.758;7.150;2023-11-21T07:12:09;8.55;118.99
7942;HTU21D;4016;50.758;7.150;2023-11-21T07:17:11;8.76;118.99
7942;HTU21D;4016;50.758;7.150;2023-11-21T07:22:12;8.71;118.99
7942;HTU21D;4016;50.758;7.150;2023-11-21T07:27:14;8.65;118.99
7942;HTU21D;4016;50.758;7.150;2023-11-21T07:32:14;8.92;118.99
7942;HTU21D;4016;50.758;7.150;2023-11-21T07:37:15;8.80;118.99
7942;HTU21D;4016;50.758;7.150;2023-11-21T07:42:15;8.80;118.99
7942;HTU21D;4016;50.758;7.150;2023-11-21T07:47:16;8.95;118.99
7942;HTU21D;4016;50.758;7.150;2023-11-21T07:52:17;9.07;118.99
7942;HTU21D;4016;50.758;7.150;2023-11-21T07:57:17;9.09;118.99
7942;HTU21D;4016;50.758;7.150;2023-11-21T08:02:18;8.88;118.99
7942;HTU21D;4016;50.758;7.150;2023-11-21T08:07:18;8.98;118.99
7942;HTU21D;4016;50.758;7.150;2023-11-21T08:12:19;8.98;118.99
7942;HTU21D;4016;50.758;7.150;2023-11-21T08:17:20;9.05;118.99
7942;HTU21D;4016;50.758;7.150;2023-11-21T08:22:21;9.15;118.99
7942;HTU21D;4016;50.758;7.150;2023-11-21T08:27:22;9.24;118.99
7942;HTU21D;4016;50.758;7.150;2023-11-21T08:32:22;9.33;118.99
7942;HTU21D;4016;50.758;7.150;2023-11-21T08:37:23;9.38;118.99
7942;HTU21D;4016;50.758;7.150;2023-11-21T08:42:24;9.42;118.99
7942;HTU21D;4016;50.758;7.150;2023-11-21T08:47:24;9.63;118.99
7942;HTU21D;4016;50.758;7.150;2023-11-21T08:52:26;9.61;118.99
7942;HTU21D;4016;50.758;7.150;2023-11-21T08:57:26;9.71;118.99
7942;HTU21D;4016;50.758;7.150;2023-11-21T09:02:27;9.84;118.99
7942;HTU21D;4016;50.758;7.150;2023-11-21T09:07:27;9.93;118.99
7942;HTU21D;4016;50.758;7.150;2023-11-21T09:12:28;10.11;118.99
7942;HTU21D;4016;50.758;7.150;2023-11-21T09:17:28;10.00;118.99
7942;HTU21D;4016;50.758;7.150;2023-11-21T09:22:28;10.01;118.99
7942;HTU21D;4016;50.758;7.150;2023-11-21T09:27:30;10.05;118.99
7942;HTU21D;4016;50.758;7.150;2023-11-21T09:32:30;10.19;118.99
7942;HTU21D;4016;50.758;7.150;2023-11-21T09:37:31;10.15;118.99
7942;HTU21D;4016;50.758;7.150;2023-11-21T09:42:36;10.24;118.99
7942;HTU21D;4016;50.758;7.150;2023-11-21T09:47:39;10.36;118.99
7942;HTU21D;4016;50.758;7.150;2023-11-21T09:52:48;10.33;118.99
7942;HTU21D;4016;50.758;7.150;2023-11-21T09:57:50;10.46;118.99
7942;HTU21D;4016;50.758;7.150;2023-11-21T10:02:50;10.53;118.99
7942;HTU21D;4016;50.758;7.150;2023-11-21T10:07:53;10.42;118.99
7942;HTU21D;4016;50.758;7.150;2023-11-21T10:13:01;10.50;118.99
7942;HTU21D;4016;50.758;7.150;2023-11-21T10:18:03;10.51;118.99
7942;HTU21D;4016;50.758;7.150;2023-11-21T10:23:05;10.48;118.99
7942;HTU21D;4016;50.758;7.150;2023-11-21T10:28:09;10.62;118.99
7942;HTU21D;4016;50.758;7.150;2023-11-21T10:33:10;10.62;118.99
7942;HTU21D;4016;50.758;7.150;2023-11-21T10:38:11;10.77;118.99
7942;HTU21D;4016;50.758;7.150;2023-11-21T10:43:14;10.88;118.99
7942;HTU21D;4016;50.758;7.150;2023-11-21T10:48:18;10.77;118.99
7942;HTU21D;4016;50.758;7.150;2023-11-21T10:53:20;10.72;118.99
7942;HTU21D;4016;50.758;7.150;2023-11-21T10:58:21;10.63;118.99
7942;HTU21D;4016;50.758;7.150;2023-11-21T11:03:22;10.82;118.99
7942;HTU21D;4016;50.758;7.150;2023-11-21T11:08:23;10.90;118.99
7942;HTU21D;4016;50.758;7.150;2023-11-21T11:13:26;11.12;118.99
7942;HTU21D;4016;50.758;7.150;2023-11-21T11:18:27;11.26;118.99
7942;HTU21D;4016;50.758;7.150;2023-11-21T11:29:14;11.14;118.99
7942;HTU21D;4016;50.758;7.150;2023-11-21T11:34:26;11.02;118.99
7942;HTU21D;4016;50.758;7.150;2023-11-21T11:39:42;11.08;118.99
7942;HTU21D;4016;50.758;7.150;2023-11-21T11:44:47;10.94;118.99
7942;HTU21D;4016;50.758;7.150;2023-11-21T11:50:06;10.96;118.99
7942;HTU21D;4016;50.758;7.150;2023-11-21T11:55:23;10.90;118.99
7942;HTU21D;4016;50.758;7.150;2023-11-21T12:05:27;10.97;118.99
7942;HTU21D;4016;50.758;7.150;2023-11-21T12:10:38;11.07;118.99
7942;HTU21D;4016;50.758;7.150;2023-11-21T12:15:39;10.87;118.99
7942;HTU21D;4016;50.758;7.150;2023-11-21T12:20:41;11.07;118.99
7942;HTU21D;4016;50.758;7.150;2023-11-21T12:25:44;10.86;118.99
7942;HTU21D;4016;50.758;7.150;2023-11-21T12:30:45;11.09;118.99
7942;HTU21D;4016;50.758;7.150;2023-11-21T12:35:45;10.90;118.99
7942;HTU21D;4016;50.758;7.150;2023-11-21T12:40:46;10.84;118.99
7942;HTU21D;4016;50.758;7.150;2023-11-21T12:45:46;10.75;118.99
7942;HTU21D;4016;50.758;7.150;2023-11-21T12:50:47;10.70;118.99
7942;HTU21D;4016;50.758;7.150;2023-11-21T12:55:49;10.79;118.99
7942;HTU21D;4016;50.758;7.150;2023-11-21T13:00:50;10.92;118.99
7942;HTU21D;4016;50.758;7.150;2023-11-21T13:05:53;10.81;118.99
7942;HTU21D;4016;50.758;7.150;2023-11-21T13:10:57;10.86;118.99
7942;HTU21D;4016;50.758;7.150;2023-11-21T13:16:00;10.96;118.99
7942;HTU21D;4016;50.758;7.150;2023-11-21T13:21:08;11.08;118.99
7942;HTU21D;4016;50.758;7.150;2023-11-21T13:26:13;11.12;118.99
7942;HTU21D;4016;50.758;7.150;2023-11-21T13:31:15;11.14;118.99
7942;HTU21D;4016;50.758;7.150;2023-11-21T13:36:25;10.99;118.99
7942;HTU21D;4016;50.758;7.150;2023-11-21T13:41:30;10.95;118.99
7942;HTU21D;4016;50.758;7.150;2023-11-21T13:46:30;11.14;118.99
7942;HTU21D;4016;50.758;7.150;2023-11-21T13:51:37;10.95;118.99
7942;HTU21D;4016;50.758;7.150;2023-11-21T13:56:48;10.97;118.99
7942;HTU21D;4016;50.758;7.150;2023-11-21T14:01:51;11.04;118.99
7942;HTU21D;4016;50.758;7.150;2023-11-21T14:06:54;10.90;118.99
7942;HTU21D;4016;50.758;7.150;2023-11-21T14:11:55;10.89;118.99
7942;HTU21D;4016;50.758;7.150;2023-11-21T14:16:57;10.67;118.99
7942;HTU21D;4016;50.758;7.150;2023-11-21T14:21:59;10.65;118.99
7942;HTU21D;4016;50.758;7.150;2023-11-21T14:26:59;10.75;118.99
7942;HTU21D;4016;50.758;7.150;2023-11-21T14:32:00;10.71;118.99
7942;HTU21D;4016;50.758;7.150;2023-11-21T14:37:01;10.60;118.99
7942;HTU21D;4016;50.758;7.150;2023-11-21T14:42:03;10.66;118.99
7942;HTU21D;4016;50.758;7.150;2023-11-21T14:47:05;10.42;118.99
7942;HTU21D;4016;50.758;7.150;2023-11-21T14:52:12;10.65;118.99
7942;HTU21D;4016;50.758;7.150;2023-11-21T14:57:33;10.50;118.99
7942;HTU21D;4016;50.758;7.150;2023-11-21T15:02:34;10.48;118.99
7942;HTU21D;4016;50.758;7.150;2023-11-21T15:07:50;10.41;118.99
7942;HTU21D;4016;50.758;7.150;2023-11-21T15:12:55;10.67;118.99
7942;HTU21D;4016;50.758;7.150;2023-11-21T15:17:55;10.62;118.99
7942;HTU21D;4016;50.758;7.150;2023-11-21T15:22:55;10.51;118.99
7942;HTU21D;4016;50.758;7.150;2023-11-21T15:27:56;10.43;118.99
7942;HTU21D;4016;50.758;7.150;2023-11-21T15:32:56;10.45;118.99
7942;HTU21D;4016;50.758;7.150;2023-11-21T15:37:56;10.41;118.99
7942;HTU21D;4016;50.758;7.150;2023-11-21T15:42:58;10.51;118.99
7942;HTU21D;4016;50.758;7.150;2023-11-21T15:47:59;10.27;118.99
7942;HTU21D;4016;50.758;7.150;2023-11-21T15:53:01;10.13;118.99
7942;HTU21D;4016;50.758;7.150;2023-11-21T15:58:03;10.10;118.99
7942;HTU21D;4016;50.758;7.150;2023-11-21T16:03:06;10.07;118.99
7942;HTU21D;4016;50.758;7.150;2023-11-21T16:08:07;10.20;118.99
7942;HTU21D;4016;50.758;7.150;2023-11-21T16:13:07;9.95;118.99
7942;HTU21D;4016;50.758;7.150;2023-11-21T16:18:08;10.00;118.99
7942;HTU21D;4016;50.758;7.150;2023-11-21T16:23:08;10.04;118.99
7942;HTU21D;4016;50.758;7.150;2023-11-21T16:28:09;9.99;118.99
7942;HTU21D;4016;50.758;7.150;2023-11-21T16:33:09;9.91;118.99
7942;HTU21D;4016;50.758;7.150;2023-11-21T16:38:11;9.99;118.99
7942;HTU21D;4016;50.758;7.150;2023-11-21T16:43:12;10.06;118.99
7942;HTU21D;4016;50.758;7.150;2023-11-21T16:48:13;10.01;118.99
7942;HTU21D;4016;50.758;7.150;2023-11-21T16:53:13;9.96;118.99
7942;HTU21D;4016;50.758;7.150;2023-11-21T16:58:14;10.16;118.99
7942;HTU21D;4016;50.758;7.150;2023-11-21T17:03:16;10.08;118.99
7942;HTU21D;4016;50.758;7.150;2023-11-21T17:08:16;10.13;118.99
7942;HTU21D;4016;50.758;7.150;2023-11-21T17:13:17;9.91;118.99
7942;HTU21D;4016;50.758;7.150;2023-11-21T17:18:17;10.20;118.99
7942;HTU21D;4016;50.758;7.150;2023-11-21T17:23:18;10.06;118.99
7942;HTU21D;4016;50.758;7.150;2023-11-21T17:28:18;9.86;118.99
7942;HTU21D;4016;50.758;7.150;2023-11-21T17:33:19;9.86;118.99
7942;HTU21D;4016;50.758;7.150;2023-11-21T17:38:19;10.05;118.99
7942;HTU21D;4016;50.758;7.150;2023-11-21T17:43:20;9.90;118.99
7942;HTU21D;4016;50.758;7.150;2023-11-21T17:48:20;9.94;118.99
7942;HTU21D;4016;50.758;7.150;2023-11-21T17:53:21;9.93;118.99
7942;HTU21D;4016;50.758;7.150;2023-11-21T17:58:22;10.05;118.99
7942;HTU21D;4016;50.758;7.150;2023-11-21T18:03:23;9.90;118.99
7942;HTU21D;4016;50.758;7.150;2023-11-21T18:08:23;9.90;118.99
7942;HTU21D;4016;50.758;7.150;2023-11-21T18:13:24;9.74;118.99
7942;HTU21D;4016;50.758;7.150;2023-11-21T18:18:24;9.64;118.99
7942;HTU21D;4016;50.758;7.150;2023-11-21T18:23:27;9.76;118.99
7942;HTU21D;4016;50.758;7.150;2023-11-21T18:28:28;9.20;118.99
7942;HTU21D;4016;50.758;7.150;2023-11-21T18:33:28;9.00;118.99
7942;HTU21D;4016;50.758;7.150;2023-11-21T18:38:28;8.98;118.99
7942;HTU21D;4016;50.758;7.150;2023-11-21T18:43:29;9.05;118.99
7942;HTU21D;4016;50.758;7.150;2023-11-21T18:48:29;8.97;118.99
7942;HTU21D;4016;50.758;7.150;2023-11-21T18:53:30;9.05;118.99
7942;HTU21D;4016;50.758;7.150;2023-11-21T18:58:34;9.09;118.99
7942;HTU21D;4016;50.758;7.150;2023-11-21T19:03:36;8.87;118.99
7942;HTU21D;4016;50.758;7.150;2023-11-21T19:08:36;8.94;118.99
7942;HTU21D;4016;50.758;7.150;2023-11-21T19:13:36;8.97;118.99
7942;HTU21D;4016;50.758;7.150;2023-11-21T19:18:37;8.78;118.99
7942;HTU21D;4016;50.758;7.150;2023-11-21T19:23:38;8.60;118.99
7942;HTU21D;4016;50.758;7.150;2023-11-21T19:28:39;8.43;118.99
7942;HTU21D;4016;50.758;7.150;2023-11-21T19:33:39;8.45;118.99
7942;HTU21D;4016;50.758;7.150;2023-11-21T19:38:39;8.37;118.99
7942;HTU21D;4016;50.758;7.150;2023-11-21T19:43:41;8.26;118.99
7942;HTU21D;4016;50.758;7.150;2023-11-21T19:48:42;8.20;118.99
7942;HTU21D;4016;50.758;7.150;2023-11-21T19:53:42;8.16;118.99
7942;HTU21D;4016;50.758;7.150;2023-11-21T19:58:43;8.00;118.99
7942;HTU21D;4016;50.758;7.150;2023-11-21T20:03:43;8.01;118.99
7942;HTU21D;4016;50.758;7.150;2023-11-21T20:08:44;7.93;118.99
7942;HTU21D;4016;50.758;7.150;2023-11-21T20:13:51;8.04;118.99
7942;HTU21D;4016;50.758;7.150;2023-11-21T20:18:51;7.90;118.99
7942;HTU21D;4016;50.758;7.150;2023-11-21T20:23:52;7.96;118.99
7942;HTU21D;4016;50.758;7.150;2023-11-21T20:28:53;7.68;118.99
7942;HTU21D;4016;50.758;7.150;2023-11-21T20:33:54;7.65;118.99
7942;HTU21D;4016;50.758;7.150;2023-11-21T20:38:54;7.47;118.99
7942;HTU21D;4016;50.758;7.150;2023-11-21T20:43:54;7.53;118.99
7942;HTU21D;4016;50.758;7.150;2023-11-21T20:48:56;7.49;118.99
7942;HTU21D;4016;50.758;7.150;2023-11-21T20:53:56;7.50;118.99
7942;HTU21D;4016;50.758;7.150;2023-11-21T20:59:00;7.40;118.99
7942;HTU21D;4016;50.758;7.150;2023-11-21T21:04:07;7.46;118.99
7942;HTU21D;4016;50.758;7.150;2023-11-21T21:09:08;7.49;118.99
7942;HTU21D;4016;50.758;7.150;2023-11-21T21:14:09;7.54;118.99
7942;HTU21D;4016;50.758;7.150;2023-11-21T21:19:09;7.25;118.99
7942;HTU21D;4016;50.758;7.150;2023-11-21T21:24:10;7.73;118.99
7942;HTU21D;4016;50.758;7.150;2023-11-21T21:29:11;7.41;118.99
7942;HTU21D;4016;50.758;7.150;2023-11-21T21:34:11;7.35;118.99
7942;HTU21D;4016;50.758;7.150;2023-11-21T21:39:13;7.24;118.99
7942;HTU21D;4016;50.758;7.150;2023-11-21T21:44:14;7.14;118.99
7942;HTU21D;4016;50.758;7.150;2023-11-21T21:49:15;7.28;118.99
7942;HTU21D;4016;50.758;7.150;2023-11-21T21:54:16;7.30;118.99
7942;HTU21D;4016;50.758;7.150;2023-11-21T21:59:16;7.18;118.99
7942;HTU21D;4016;50.758;7.150;2023-11-21T22:04:17;7.16;118.99
7942;HTU21D;4016;50.758;7.150;2023-11-21T22:09:17;7.31;118.99
7942;HTU21D;4016;50.758;7.150;2023-11-21T22:14:19;7.25;118.99
7942;HTU21D;4016;50.758;7.150;2023-11-21T22:19:19;7.45;118.99
7942;HTU21D;4016;50.758;7.150;2023-11-21T22:24:19;7.10;118.99
7942;HTU21D;4016;50.758;7.150;2023-11-21T22:29:21;7.30;118.99
7942;HTU21D;4016;50.758;7.150;2023-11-21T22:34:22;7.18;118.99
7942;HTU21D;4016;50.758;7.150;2023-11-21T22:39:23;7.03;118.99
7942;HTU21D;4016;50.758;7.150;2023-11-21T22:44:23;7.09;118.99
7942;HTU21D;4016;50.758;7.150;2023-11-21T22:49:23;6.93;118.99
7942;HTU21D;4016;50.758;7.150;2023-11-21T22:54:24;6.66;118.99
7942;HTU21D;4016;50.758;7.150;2023-11-21T22:59:24;6.50;118.99
7942;HTU21D;4016;50.758;7.150;2023-11-21T23:04:25;6.44;118.99
7942;HTU21D;4016;50.758;7.150;2023-11-21T23:09:25;6.35;118.99
7942;HTU21D;4016;50.758;7.150;2023-11-21T23:14:25;6.19;118.99
7942;HTU21D;4016;50.758;7.150;2023-11-21T23:19:26;6.01;118.99
7942;HTU21D;4016;50.758;7.150;2023-11-21T23:24:27;5.86;118.99
7942;HTU21D;4016;50.758;7.150;2023-11-21T23:29:28;5.77;118.99
7942;HTU21D;4016;50.758;7.150;2023-11-21T23:34:28;5.60;118.99
7942;HTU21D;4016;50.758;7.150;2023-11-21T23:39:29;5.50;118.99
7942;HTU21D;4016;50.758;7.150;2023-11-21T23:44:29;5.64;118.99
7942;HTU21D;4016;50.758;7.150;2023-11-21T23:49:30;5.41;118.99
7942;HTU21D;4016;50.758;7.150;2023-11-21T23:54:30;5.35;118.99
7942;HTU21D;4016;50.758;7.150;2023-11-21T23:59:31;5.35;118.99
